Results By State


Marshman® Triathlon Presented by Kinetic PT

Race Date: Sunday September 14, 2008
Description: 1/4 Mile Swim~12.5 Mile Bike~2 Mile Run
Race Category: Triathlon
# Entrants in State: 417

Choose:
 State
Place
Overall
Place
NameCityStateRace AgeGenderDivisionTimeBib#
View 1 1 Verdeur, Bryan West Chester PA 24 M M20-24 0:55:02 142
View 2 3 Pudlinski, Mike Trooper PA 33 M M30-34 0:55:51 94
View 3 5 Coleman, Matthew Philadelphia PA 28 M M25-29 0:56:34 103
View 4 7 Henkel, David Mont Clare PA 28 M M25-29 0:58:07 114
View 5 8 Reid, James West Chester PA 47 M M45-49 0:59:38 281
View 6 9 Williams, Hadley Media PA 62 M Relay 1:00:16 543
View 7 10 Phillips, Ryan West Chester PA 30 M M30-34 1:00:16 20
View 8 11 Schlichtmann, Donald Collegeville PA 44 M M40-44 1:00:20 236
View 9 12 Richey Iii, Robert Warminster PA 20 M M20-24 1:00:22 111
View 10 13 Allen, Joel Gilbertsville PA 36 M M35-39 1:00:29 144
View 11 14 Stigall, Stephen Berwyn PA 39 M M35-39 1:00:44 125
View 12 15 Gantz, Jacob Philadelphia PA 28 M M25-29 1:01:03 141
View 13 16 Puharic, John Phoenixville PA 50 M M50-54 1:01:09 233
View 14 18 Dillon, Tom Newtown PA 51 M M50-54 1:01:36 180
View 15 19 Wagner, Joshua Downingtown PA 30 M M30-34 1:01:40 90
View 16 20 Carey, Shawn West Chester PA 43 M M40-44 1:01:41 178
View 17 21 Woolery, Steve Media PA 32 M M30-34 1:01:50 108
View 18 24 Ritz, Ben Rydal PA 14 M M0-19 1:02:28 126
View 19 25 Schreck, Jerry Ardmore PA 51 M Relay 1:02:54 532
View 20 26 Sherry, Jim Wayne PA 51 M M50-54 1:03:07 262
View 21 27 Fritsche, Todd Spring City PA 48 M M45-49 1:03:07 151
View 22 28 Mays, Michael Hatfield PA 48 M M45-49 1:03:16 267
View 23 29 Yaffa, Susie Philadelphia PA 29 F F25-29 1:03:29 458
View 24 31 Woolery, Todd Media PA 35 M M35-39 1:03:51 107
View 25 32 Wetzel, Lori Allentown PA 45 F Relay 1:04:13 531
View 26 33 Nagy, Tom Spring City PA 43 M M40-44 1:04:43 251
View 27 34 Novelli, Pete Malvern PA 42 M M40-44 1:04:57 260
View 28 36 Partin, Mark Blue Bell PA 40 M M40-44 1:05:11 237
View 29 37 Bieber, Michael Mohnton PA 45 M M45-49 1:05:17 274
View 30 38 Mulhern, Owen Downingtown PA 31 M M30-34 1:05:25 96
View 31 40 Bergman, Jeremy West Chester PA 27 M M25-29 1:05:37 17
View 32 42 Massaro, Lauren Hershey PA 28 F F25-29 1:05:47 447
View 33 44 Mehl, John Chalfont PA 41 M M40-44 1:06:10 202
View 34 45 Rittenhouse, Peter West Chester PA 51 M M50-54 1:06:11 224
View 35 46 Felder, Jeff Oxford PA 40 M M40-44 1:06:17 266
View 36 47 Parker, Kevin Radnor PA 44 M M40-44 1:06:20 220
View 37 48 Enck, Kurt Mount Joy PA 46 M M45-49 1:06:29 187
View 38 49 Wright, John Abington PA 39 M M35-39 1:06:36 72
View 39 50 Brezski, Randall Pottstown PA 33 M M30-34 1:06:36 50
View 40 51 Stephens, Charlie Conshohocken PA 28 M M25-29 1:06:39 60
View 41 52 Mousaw, Douglas Springfield PA 34 M M30-34 1:06:55 120
View 42 53 Evans, Stephanie West Chester PA 35 F F35-39 1:06:55 356
View 43 54 Patterson, Jesse Wayne PA 33 M M30-34 1:07:01 145
View 44 56 Hoopes, Larry Collegeville PA 30 M M30-34 1:07:14 34
View 45 57 Levy, Tom Sinking Spring PA 43 M M40-44 1:07:23 280
View 46 58 Culp, Amy Gilbertsville PA 46 F Relay 1:07:23 517
View 47 60 Elmer, Jim Reinholds PA 48 M M45-49 1:07:29 264
View 48 61 Niemiec, Kevin West Chester PA 25 M M25-29 1:07:33 44
View 49 62 Frascella, Sara Havertown PA 29 F F25-29 1:07:38 437
View 50 63 Evans, Steve West Chester PA 38 M Clydesdale 1:07:41 57
View 51 64 Jones, Rob West Chester PA 40 M M40-44 1:07:45 149
View 52 65 Kucera, James Newtown Square PA 30 M M30-34 1:07:52 22
View 53 66 Dawson, Bill West Chester PA 57 M M55-59 1:07:59 148
View 54 67 Littles, Dieter Philadelphia PA 50 M M50-54 1:08:13 211
View 55 68 Bank, Cory Philadelphia PA 38 M Clydesdale 1:08:21 54
View 56 69 Delone, Michael Downingtown PA 39 M M35-39 1:08:28 39
View 57 70 Duffy, William Philadelphia PA 41 M M40-44 1:08:29 183
View 58 72 Angus, Virginia Boyertown PA 45 F F45-49 1:08:29 509
View 59 73 Schutawie, Jim Collegeville PA 45 M M45-49 1:08:36 238
View 60 74 Adams, Matthew West Chester PA 27 M M25-29 1:08:46 99
View 61 75 Kelly, Stephen Phoenixville PA 44 M M40-44 1:08:48 156
View 62 76 Keefe, Dave West Chester PA 35 M Clydesdale 1:08:52 29
View 63 77 Russell, Steve Butler PA 52 M M50-54 1:08:53 288
View 64 78 Reedell, Scott Bensalem PA 33 M M30-34 1:08:55 24
View 65 79 Blow, Jonathan Downingtown PA 24 M M20-24 1:08:57 143
View 66 81 Schwartz, Frank Glenside PA 58 M M55-59 1:09:07 198
View 67 82 Wartluft, Brett Sinking Spring PA 40 M M40-44 1:09:14 163
View 68 83 Markle, Jeffrey West Chester PA 44 M Clydesdale Master 1:09:21 154
View 69 84 Mcguigan, Daniel Phoenixville PA 22 M M20-24 1:09:23 71
View 70 85 Gardner, Geoffrey Ardmore PA 35 M M35-39 1:09:26 98
View 71 86 Wartluft, Leah Sinking Spring PA 41 F F40-44 1:09:30 473
View 72 87 Harriman, Connor Yardley PA 13 M M0-19 1:09:33 46
View 73 88 Mccloskey, Matthew Kennett Square PA 39 M Relay 1:09:35 526
View 74 89 Bice, David West Chester PA 42 M M40-44 1:09:42 253
View 75 90 Groener, Steve Phoenixville PA 42 M M40-44 1:09:49 249
View 76 91 Woolery, Eleanor Media PA 34 F F30-34 1:09:54 417
View 77 92 Lyle, Trevor Harleysville PA 53 M M50-54 1:09:55 216
View 78 93 Sundin, Phillip Downingtown PA 41 M M40-44 1:09:58 268
View 79 94 Luscombe, Dana Harleysville PA 45 M M45-49 1:10:02 206
View 80 95 Hager, Jim Morrisville PA 43 M M40-44 1:10:08 172
View 81 96 Khan, Stephanie Oxford PA 44 F F40-44 1:10:09 524
View 82 98 Winkis, Annmarie Philadelphia PA 30 F F30-34 1:10:27 402
View 83 99 Lederer, Sean Philadelphia PA 46 M M45-49 1:10:27 289
View 84 100 Iacocca, Mary Kennett Square PA 43 F F40-44 1:10:53 467
View 85 101 Mize, Michael Downingtown PA 28 M M25-29 1:10:56 14
View 86 102 Schrode-fries, Tina Douglassville PA 37 F F35-39 1:10:57 369
View 87 103 Patton, Gerald West Chester PA 48 M M45-49 1:10:58 226
View 88 104 Smokowicz, Andrew Lancaster PA 27 M M25-29 1:11:07 100
View 89 105 Pickard, Patty West Chester PA 45 F F45-49 1:11:14 469
View 90 106 Spruance, Jake Kennett Square PA 33 M Clydesdale 1:11:15 10
View 91 107 Bender, Jen West Chester PA 24 F F20-24 1:11:18 351
View 92 108 Niemiec, David Philadelphia PA 27 M M25-29 1:11:20 41
View 93 109 Frees, Robb Phoenixville PA 46 M M45-49 1:11:26 147
View 94 110 Macintyre, Michael Chester Springs PA 39 M M35-39 1:11:30 25
View 95 111 Dietrick, Kimberly Paoli PA 35 F F35-39 1:11:35 460
View 96 112 Mckernan, Chip Collegeville PA 45 M M45-49 1:11:43 195
View 97 113 Shields, Jim West Chester PA 42 M M40-44 1:11:45 174
View 98 114 Twiford, Michael Bath PA 49 M M45-49 1:11:48 200
View 99 115 Curless, Craig Phoenixville PA 45 M M45-49 1:11:57 204
View 100 116 Meck, Tyler Lancaster PA 35 M Clydesdale 1:11:58 81
View 101 117 Defalco, Bill Bensalem PA 56 M M55-59 1:12:01 259
View 102 118 Christian, Greg Audubon PA 43 M M40-44 1:12:07 223
View 103 119 Miller, Ryan Lancaster PA 25 M Clydesdale 1:12:07 117
View 104 120 Hager, Glen Philadelphia PA 39 M M35-39 1:12:08 30
View 105 121 Breslin, James Downingtown PA 42 M M40-44 1:12:08 182
View 106 122 Harper, Rachel Media PA 35 F F35-39 1:12:09 329
View 107 123 Urgo, Keith Wayne PA 29 M M25-29 1:12:09 49
View 108 124 Braufman, Sue Philadelphia PA 39 F F35-39 1:12:13 389
View 109 125 O' Hara, Elaine Malvern PA 40 F F40-44 1:12:21 525
View 110 126 Hermans, Hans Downingtown PA 44 M M40-44 1:12:53 270
View 111 127 Thir, Jonathan Glenmoore PA 40 M M40-44 1:12:54 155
View 112 128 Shilling, Jocelyn Saylorsburg PA 47 F F45-49 1:13:03 533
View 113 129 Garner, Paul West Chester PA 42 M M40-44 1:13:05 191
View 114 130 Wright, Rob Media PA 41 M M40-44 1:13:06 190
View 115 131 Correll, Gary Laureldale PA 65 M M65-69 1:13:06 241
View 116 132 Benedetti, Gino Media PA 46 M M45-49 1:13:08 246
View 117 133 Defibaugh, Kelley Chester Springs PA 38 F F35-39 1:13:13 446
View 118 134 Ramsey, Elizabeth Royersford PA 52 F F50-54 1:13:15 551
View 119 135 Buonato, Anthony Ambler PA 41 M M40-44 1:13:19 213
View 120 136 Voigtsberger, Regina Philadelphia PA 44 F F40-44 1:13:23 527
View 121 137 Segner, Greg Pottstown PA 45 M M45-49 1:13:29 256
View 122 138 Burd, Russell East Greenville PA 44 M M40-44 1:13:33 203
View 123 139 Glinecke, Robert Pottstown PA 49 M M45-49 1:13:38 169
View 124 140 Neifield, Brent Cheltenham PA 20 M M20-24 1:13:38 109
View 125 141 Humphreys, Scott Portage PA 24 M M20-24 1:13:43 73
View 126 142 Concannon, Thomas Berwyn PA 45 M M45-49 1:13:52 167
View 127 143 Richards, Diane Royersford PA 37 F F35-39 1:13:53 307
View 128 144 Ring, Judith Richboro PA 41 F F40-44 1:14:02 484
View 129 145 Mcguigan, James Phoenixville PA 54 M M50-54 1:14:08 210
View 130 146 Durkan, Jennifer West Chester PA 38 F F35-39 1:14:10 449
View 131 147 Bower, Tanya Bethlehem PA 23 F Relay 1:14:10 554
View 132 148 Bellaire, David Collegeville PA 34 M M30-34 1:14:14 135
View 133 149 Jestice, Kevin Downingtown PA 28 M M25-29 1:14:15 28
View 134 151 Kruse, Justin Thorndale PA 27 M M25-29 1:14:20 93
View 135 153 Swymer, Kaitlin Devon PA 25 F F25-29 1:14:31 396
View 136 155 Bram, Geoffrey Southampton PA 32 M M30-34 1:14:42 61
View 137 156 Starnes, Bill Kennett Square PA 40 M M40-44 1:14:49 159
View 138 160 Vanic, Kevin Bethlehem PA 36 M M35-39 1:15:00 83
View 139 162 Mcguire, Dave Norristown PA 29 M M25-29 1:15:02 123
View 140 164 Hineman, Gary Kennett Square PA 44 M M40-44 1:15:25 221
View 141 165 Glenn, Jason Saylorsburg PA 35 M Clydesdale 1:15:30 121
View 142 166 Allen, Kathy Gilbertsville PA 35 F F35-39 1:15:32 459
View 143 167 Yeo, Janice Philadelphia PA 23 F F20-24 1:15:33 358
View 144 168 Gerhart, William Mt Penn PA 57 M M55-59 1:15:33 146
View 145 169 Fineberg, Jeff Philadelphia PA 22 M M20-24 1:15:40 91
View 146 170 Gonzalez, Michael Lancaster PA 40 M Clydesdale Master 1:15:41 228
View 147 171 Richey, Linda Warminster PA 53 F F50-54 1:15:42 540
View 148 172 Taney, Tom Wayne PA 17 M M0-19 1:15:42 38
View 149 173 Hallinan, Kevin Havertown PA 30 M Clydesdale 1:15:56 132
View 150 174 Sandlin, Amanda Tamaqua PA 19 F F0-19 1:16:00 376
View 151 175 Brown, Bill Glenmoore PA 53 M M50-54 1:16:01 257
View 152 176 Altrogge, Jeannine Quakertown PA 38 F F35-39 1:16:06 348
View 153 177 Ubele, Margo Perkasie PA 26 F F25-29 1:16:06 332
View 154 178 Mchoul, David Downingtown PA 40 M M40-44 1:16:06 225
View 155 179 Till, Eric Newtown Square PA 31 M M30-34 1:16:07 5
View 156 180 Vanocker, David Berwyn PA 51 M M50-54 1:16:21 252
View 157 181 Singha, Kamini Lemont PA 31 F F30-34 1:16:29 291
View 158 183 Achuff, Jacquelyn Phoenixville PA 39 F F35-39 1:16:37 361
View 159 186 Ritz, Shaila Garnet Valley PA 30 F Athena 1:16:52 390
View 160 187 Shea, Michael Springfield PA 36 M M35-39 1:16:59 75
View 161 188 Kagarise, Robert Harleysville PA 41 M M40-44 1:17:02 179
View 162 189 Calvin, Krista Schwenksville PA 27 F F25-29 1:17:07 409
View 163 191 Devenney, Mike Chester Springs PA 34 M Clydesdale 1:17:10 85
View 164 192 Meck, Todd Willow Street PA 36 M Clydesdale 1:17:12 82
View 165 193 Shea, Anne-marie West Chester PA 38 F F35-39 1:17:16 454
View 166 194 Foster, Paul West Chester PA 47 M M45-49 1:17:20 265
View 167 195 Hayes, Meg Havertown PA 32 F F30-34 1:17:25 388
View 168 196 Brezski, Jason Pottstown PA 36 M M35-39 1:17:26 52
View 169 197 Karalius, Adam Pottstown PA 35 M M35-39 1:17:43 70
View 170 198 Wedemeyer, Liane Limerick PA 37 F F35-39 1:17:52 373
View 171 199 Crouse, Ryan Dover PA 31 M Clydesdale 1:17:53 74
View 172 201 Gonzalez, Lisa Lancaster PA 38 F Athena 1:17:56 391
View 173 202 Wilkerson, Jonathan Philadelphia PA 37 M Clydesdale 1:18:06 23
View 174 203 Urgo, Kristy Wayne PA 29 F F25-29 1:18:13 338
View 175 204 Bouvier, Bill Chester Springs PA 43 M M40-44 1:18:15 271
View 176 205 Wall, Mark Flourtown PA 39 M M35-39 1:18:25 47
View 177 207 Lemmy, Simon Downingtown PA 38 M M35-39 1:18:28 40
View 178 208 Mattson, Andrew Exton PA 24 M M20-24 1:18:36 78
View 179 210 Byrne, Timothy Norristown PA 41 M M40-44 1:18:49 235
View 180 211 Alansky, Beth Downingtown PA 41 F F40-44 1:19:01 491
View 181 212 Mcginley, Jim Pottstown PA 46 M M45-49 1:19:03 208
View 182 213 Fones, Dave Mechanicsburg PA 47 M M45-49 1:19:04 247
View 183 214 Mace, Katie Mechanicsburg PA 25 F F25-29 1:19:05 385
View 184 215 Reedell, Megan Bensalem PA 30 F Athena 1:19:06 315
View 185 216 Mendell, Dave Wallingford PA 40 M M40-44 1:19:06 277
View 186 217 Garber, Carman Lyndell PA 38 F F35-39 1:19:07 327
View 187 218 Martin, Gail Glenside PA 50 F F50-54 1:19:10 478
View 188 219 Hamilton, Colin Downingtown PA 29 M M25-29 1:19:17 4
View 189 220 Kaniewski, Rick Phoenixville PA 33 M M30-34 1:19:28 43
View 190 221 Phillips, Mary Kate West Chester PA 27 F F25-29 1:19:28 310
View 191 222 Mason, Maureen Kennett Square PA 41 F F40-44 1:19:33 557
View 192 223 Trosino, Vince Ivyland PA 42 M M40-44 1:19:35 165
View 193 224 Weller, David Gilbertsville PA 43 M M40-44 1:19:38 212
View 194 225 Kelly, Brendan Downingtown PA 41 M Clydesdale Master 1:19:39 173
View 195 226 Ritz, Sam --- M M0-19 1:19:40 129
View 196 227 Picardi, Kenn Pottstown PA 48 M M45-49 1:19:41 284
View 197 228 Riley, Mike Downingtown PA 39 M M35-39 1:19:42 272
View 198 229 Murray, Jeffrey Limerick PA 46 M M45-49 1:19:54 189
View 199 230 Foster, Deb West Chester PA 44 F F40-44 1:20:02 549
View 200 231 Holden, Joseph Glenside PA 35 M M35-39 1:20:04 136
View 201 232 Pelletier, Melissa Pipersville PA 31 F F30-34 1:20:06 442
View 202 233 Baker, Maribeth Collegeville PA 35 F F35-39 1:20:07 333
View 203 234 Joachim, Mike Philaelphia PA 39 M M35-39 1:20:09 97
View 204 235 Crane, Emily Narberth PA 38 F F35-39 1:20:18 448
View 205 236 Troncoso, Thomas Lancaster PA 41 M M40-44 1:20:23 234
View 206 238 Chambers, Patrick Bryn Mawr PA 38 M M35-39 1:20:25 48
View 207 239 Weitzenhofffer, Sondra Langhorne PA 47 F F45-49 1:20:26 539
View 208 240 Petrone, Diane West Chester PA 26 F F25-29 1:20:27 343
View 209 241 Davis, Jamie Maple Glen PA 38 F F35-39 1:20:32 347
View 210 242 Hewitt, John Ivyland PA 39 M M35-39 1:20:34 12
View 211 243 Ridpath, Kevin Springfield PA 34 M M30-34 1:20:38 119
View 212 244 Crawford, Steve Collegeville PA 40 M M40-44 1:20:40 197
View 213 245 Kiey, Maura Downingtown PA 42 F Relay 1:20:50 518
View 214 246 Jones, Lysa West Chester PA 45 F F45-49 1:20:57 465
View 215 247 Duffy, Jeong Philadelphia PA 33 F F30-34 1:21:11 457
View 216 249 Kukwa, Rick West Chester PA 46 M M45-49 1:21:16 227
View 217 250 Woolery, Tara Media PA 31 F F30-34 1:21:17 418
View 218 251 Greim, Joe Hatboro PA 47 M M45-49 1:21:34 170
View 219 252 Rother, Abby Levittown PA 26 F F25-29 1:21:37 360
View 220 253 Ewing, Scott Stroudsburg PA 58 M M55-59 1:21:40 175
View 221 254 Gelb, Joel Downingtown PA 52 M M50-54 1:21:42 209
View 222 255 Buettner, Karl Malvern PA 42 M Clydesdale Master 1:21:47 205
View 223 258 Mcbrearty, Dan Philadelphia PA 28 M M25-29 1:22:00 58
View 224 259 Kitchen, William Perkiomenville PA 41 M Clydesdale Master 1:22:03 230
View 225 261 Leimkuhler, Kelly Downingtown PA 15 F F0-19 1:22:18 292
View 226 262 Kalucki, Missey Chester Springs PA 39 F F35-39 1:22:19 367
View 227 263 Carbo, Nicole Plymouth Meeting PA 29 F F25-29 1:22:20 415
View 228 264 Folk, Timothy Souderton PA 38 M M35-39 1:22:21 104
View 229 265 Holiat, Lydia Mont Clare PA 28 F F25-29 1:22:25 309
View 230 266 Hoffman, John Spring City PA 43 M Clydesdale Master 1:22:27 275
View 231 267 Smith, Sr, Richard West Chester PA 65 M M65-69 1:22:27 186
View 232 271 Miller, Diane Pottstown PA 38 F F35-39 1:22:30 382
View 233 272 Yoegel, Mary West Chester PA 39 F F35-39 1:22:32 452
View 234 273 Veno, Nancy Kennett Square PA 48 F F45-49 1:22:34 471
View 235 274 Besz, Corey King Of Prussia PA 36 M M35-39 1:22:39 137
View 236 275 Miller, Kelly Downingtown PA 40 F F40-44 1:22:40 552
View 237 277 Glah, Caryle West Chester PA 57 F F55-59 1:22:42 511
View 238 278 Bergan, Jane West Chester PA 43 F F40-44 1:22:54 463
View 239 279 Cluver, Henry Media PA 63 M M60-64 1:22:59 181
View 240 281 Nicastro, Vincent Drexel Hill PA 43 M M40-44 1:23:04 199
View 241 282 Corcimiglia, Natalie Downingtown PA 37 F F35-39 1:23:07 379
View 242 283 O'malley, Linda Lafayette Hill PA 40 F Athena 1:23:10 479
View 243 284 Siaton, Gerry Phoenixville PA 37 M M35-39 1:23:16 88
View 244 285 Haven, Kate Philadelphia PA 25 F F25-29 1:23:30 302
View 245 286 White, Jamie Doylestown PA 32 F Relay 1:23:33 558
View 246 287 Munyan, Derek Mont Clare PA 29 M M25-29 1:23:46 140
View 247 288 Porter, Dan Chester Springs PA 41 M M40-44 1:23:51 171
View 248 289 Leitch, Rob Mt Joy PA 36 M Clydesdale 1:24:00 84
View 249 290 Elliott, Cristin Drexel Hill PA 28 F F25-29 1:24:01 399
View 250 291 Peters, Michael Kennett Square PA 44 M Clydesdale Master 1:24:04 285
View 251 292 Samson, Matthew Feasterville PA 31 M M30-34 1:24:07 86
View 252 293 Pomento, Brian Phoenixville PA 44 M Relay 1:24:26 519
View 253 294 Swan, Caroline Glenside PA 38 F F35-39 1:24:30 320
View 254 295 Berkowitz, Arthur Bryn Mawr PA 54 M M50-54 1:24:42 215
View 255 296 Endy, Kristine Boyertown PA 42 F Athena 1:24:51 513
View 256 297 Abes, Bob Kennett Square PA 50 M M50-54 1:24:55 168
View 257 300 Farina, Ralph Downingtown PA 56 M Relay 1:25:01 530
View 258 301 Gicking, Kimberly Yardley PA 26 F F25-29 1:25:04 342
View 259 302 Mcguire, Laura Norristown PA 28 F F25-29 1:25:12 439
View 260 303 Costanza, Sarah Ambler PA 24 F F20-24 1:25:20 462
View 261 304 Remick, Jeremy Oreland PA 31 M M30-34 1:25:20 59
View 262 305 Riley, Kristen Downingtown PA 38 F F35-39 1:25:37 445
View 263 306 Gelb, Alecia Downingtown PA 22 F Relay 1:25:45 553
View 264 307 Burd, Brook East Greenville PA 19 M M0-19 1:25:50 64
View 265 308 Kucera, Jonathan Downingtown PA 27 M M25-29 1:25:56 66
View 266 309 Berne, Douglas Wyomissing PA 46 M M45-49 1:26:00 194
View 267 311 Riccardo, Julie Malvern PA 23 F F20-24 1:26:03 438
View 268 312 Peterson, Douglas Lancaster PA 25 M Clydesdale 1:26:04 95
View 269 313 Doherty, Joe Conshohocken PA 42 M Clydesdale Master 1:26:06 176
View 270 314 Mccormick, Annamarie Sinking Spring PA 20 F F20-24 1:26:07 319
View 271 315 Brotz, Donelle North Wales PA 28 F F25-29 1:26:23 404
View 272 316 Good, Jennifer West Chester PA 25 F F25-29 1:26:27 371
View 273 317 Casey, Michelle Downingtown PA 32 F F30-34 1:26:34 372
View 274 319 Donnelly, John Pottstown PA 35 M M35-39 1:26:44 35
View 275 320 Cavanaugh, Michael Philadelphia PA 26 M M25-29 1:26:47 15
View 276 321 Dunn, Stephanie Pottstown PA 39 F F35-39 1:26:53 325
View 277 322 Johnson, Steven Downingtown PA 43 M M40-44 1:26:53 254
View 278 324 Clarke, Barbara West Chester PA 50 F F50-54 1:27:03 464
View 279 325 Gabor, Laura Glenside PA 29 F F25-29 1:27:08 345
View 280 326 Frees, Tyler Phoenixville PA 14 M M0-19 1:27:11 42
View 281 327 Gray, Tanya West Brandywine PA 42 F F40-44 1:27:19 523
View 282 328 Gadbow, Kathryn Exton PA 17 F F0-19 1:27:23 293
View 283 329 Grassi, Eden Bala Cynwyd PA 29 F F25-29 1:27:25 311
View 284 330 Saunders, Sean Malvern PA 49 M M45-49 1:27:38 286
View 285 331 Ware, Christy Newtown Square PA 29 F Athena 1:27:51 451
View 286 332 Rucci, Tara Glenmoore PA 38 F F35-39 1:27:56 405
View 287 333 Ward, Keca Collegeville PA 38 F F35-39 1:27:59 435
View 288 334 Laviola, Paul Media PA 33 M M30-34 1:28:06 36
View 289 335 Runkle, Martha Wayne PA 23 F Athena 1:28:14 304
View 290 336 Lukac, Suzanne Springfield PA 36 F F35-39 1:28:15 362
View 291 337 Glinecke, Nancy Pottstown PA 38 F Athena 1:28:18 316
View 292 338 Moser, Sarah King Of Prussia PA 26 F F25-29 1:28:20 353
View 293 339 Watkins, Krystal Philadelphia PA 26 F F25-29 1:28:21 370
View 294 340 Leslie, Amy Catasauqua PA 26 F F25-29 1:28:22 299
View 295 342 Platt, Nikki Phoenixville PA 29 F F25-29 1:28:27 375
View 296 343 Scott, Evan Jenkintown PA 50 M M50-54 1:28:28 269
View 297 344 Granville, Joe Exton PA 32 M M30-34 1:28:39 69
View 298 345 Pieragostini, Melissa Mont Clare PA 30 F F30-34 1:28:41 308
View 299 346 Sterling, Tracey Boyertown PA 37 F F35-39 1:28:47 383
View 300 347 Kearns, Kristen Wayne PA 37 F F35-39 1:28:50 410
View 301 348 Navin, Jr., Francis Philadelphia PA 50 M M50-54 1:28:50 232
View 302 349 Chesky, Tom Phoenixville PA 40 M Clydesdale Master 1:29:01 218
View 303 350 Wilkerson, Kerri Philadelphia PA 47 F Athena 1:29:06 477
View 304 351 Oviedo, Henry Fort Washington PA 45 M M45-49 1:29:07 263
View 305 352 Spiecker, Cindy Doylestown PA 23 F F20-24 1:29:10 456
View 306 353 Kalucki, Tom Chester Springs PA 38 M M35-39 1:29:10 65
View 307 354 Lokhorst, Denise West Chester PA 45 F F45-49 1:29:11 522
View 308 355 Rizol, Jim Lansdale PA 45 M M45-49 1:29:12 153
View 309 356 Steinberg, Jennifer Chalfont PA 37 F F35-39 1:29:16 378
View 310 358 Muir, Elizabeth Malvern PA 46 F F45-49 1:29:30 500
View 311 359 Wilson, Kerry Phoenixville PA 27 F Athena 1:29:36 432
View 312 360 Cubbler, Lauren Royersford PA 36 F Athena 1:29:38 381
View 313 361 Lansberry, Elise Media PA 40 F F40-44 1:29:47 545
View 314 362 Salamone, John Pottstown PA 48 M M45-49 1:29:48 290
View 315 363 Doran, Phyllis Berwyn PA 55 F F55-59 1:29:49 506
View 316 364 Trio, Sherron Downingtown PA 47 F Athena 1:29:49 556
View 317 365 Quarino, Daniele Schwenksville PA 50 F F50-54 1:29:50 474
View 318 366 Andrasek, Christine Red Hill PA 42 F F40-44 1:29:54 520
View 319 368 Toocheck, Tara West Chester PA 40 F F40-44 1:30:08 487
View 320 370 Winoski, David Havertown PA 47 M M45-49 1:30:21 261
View 321 371 Houck, William Quakertown PA 23 M M20-24 1:30:28 127
View 322 373 Stevenson, Tim Coatesville PA 41 M M40-44 1:30:40 214
View 323 374 Durborow, Robert West Chester PA 27 M M25-29 1:30:40 56
View 324 375 Marcase, Tammy York PA 34 F F30-34 1:30:44 306
View 325 376 Laverty, Michele Conshohocken PA 42 F F40-44 1:30:46 495
View 326 377 Guenzer, Susan Malvern PA 47 F F45-49 1:30:54 542
View 327 378 Baylor, Isolde Havertown PA 38 F F35-39 1:31:01 450
View 328 380 Kirk, Colleen Chester Springs PA 44 F F40-44 1:31:22 490
View 329 381 Negrotti, Pamela Berwyn PA 28 F F25-29 1:31:34 440
View 330 382 Haefner, Kristen Exton PA 37 F F35-39 1:31:42 461
View 331 383 Butler, Michael Mechanicsburg PA 38 M M35-39 1:31:53 131
View 332 384 Talese, Patricia Blue Bell PA 62 F Relay 1:32:12 512
View 333 386 Petrucci, Kimberly Wynnewood PA 38 F F35-39 1:32:16 364
View 334 387 Stenta, Jackie West Grove PA 35 F F35-39 1:32:18 359
View 335 388 Fitzpatrick, Colleen Gilbertsville PA 36 F Athena 1:32:21 368
View 336 389 Fitch, Grace Ambler PA 25 F F25-29 1:32:22 340
View 337 390 Radice, Robert Allentown PA 62 M M60-64 1:32:30 244
View 338 391 Poche, Philip Radnor PA 42 M Clydesdale Master 1:32:31 243
View 339 392 Kirby, Rhonda Kennett Square PA 42 F F40-44 1:32:32 483
View 340 393 Toocheck, Daniel West Chester PA 43 M M40-44 1:32:34 185
View 341 394 Agnew, Amy Pottstown PA 40 F F40-44 1:32:35 503
View 342 395 Mcgoey, Mary Flourtown PA 31 F F30-34 1:32:40 444
View 343 396 Lum, Holly Philadelphia PA 32 F F30-34 1:32:40 397
View 344 397 Mccreavy, Kate Philadelphia PA 38 F F35-39 1:33:08 400
View 345 399 Bebee, Meridith Exton PA 38 F F35-39 1:33:19 394
View 346 400 Panzer, Joe Warminster PA 13 M M0-19 1:33:21 63
View 347 401 Quinn, Cauldon Chester Springs PA 36 M Clydesdale 1:33:29 27
View 348 402 Heydt, Christa Garnet Valley PA 29 F F25-29 1:33:38 301
View 349 403 Bonello, Carol King Of Prussia PA 44 F F40-44 1:33:41 508
View 350 404 Miller, Anne Swarthmore PA 21 F F20-24 1:33:44 354
View 351 405 Saidel, Susan Philadelphia PA 42 F F40-44 1:33:50 507
View 352 406 Udovich, Megan Media PA 38 F F35-39 1:33:58 303
View 353 407 Hamilton, Meghan Philadelphia PA 25 F F25-29 1:34:01 305
View 354 411 Walsh, Mark Flourtown PA 33 M Clydesdale 1:34:14 130
View 355 412 Fortay, Bryan Bryn Mawr PA 37 M Clydesdale 1:34:27 8
View 356 413 Durkan, Niall West Chester PA 38 M M35-39 1:34:30 133
View 357 414 Bebee, Brian Exton PA 37 M M35-39 1:34:34 89
View 358 415 Dougherty, Geri Ambler PA 50 F F50-54 1:34:40 510
View 359 416 Forster, Jill Flourtown PA 33 F F30-34 1:34:40 346
View 360 417 Haralambous, Gus Bensalem PA 33 M Clydesdale 1:34:47 11
View 361 419 Guenzer, Grace Malvern PA 13 F F0-19 1:34:58 426
View 362 421 Friel, Paul Phoenixville PA 39 M M35-39 1:35:27 115
View 363 422 Graziani, Amy West Chester PA 50 F F50-54 1:35:52 468
View 364 423 Panzer, Lisa Warminster PA 44 F F40-44 1:35:54 505
View 365 425 Cammauf, Jessica Temple PA 28 F Athena 1:36:05 365
View 366 426 Demopoulos, Colleen Norwood PA 38 F F35-39 1:36:29 420
View 367 427 Combs, Patricia Media PA 39 F F35-39 1:36:34 406
View 368 428 Mulzet, Tracey Bangor PA 49 F F45-49 1:37:03 493
View 369 429 Stearns, Jen Wayne PA 37 F F35-39 1:37:18 398
View 370 431 Santucci, Megan Bethlehem PA 28 F F25-29 1:38:02 313
View 371 432 Device, Anthony Havertown PA 36 M M35-39 1:38:08 3
View 372 434 Watters, Jen West Chester PA 27 F F25-29 1:38:18 412
View 373 436 Udovich, Patrick Media PA 41 M M40-44 1:38:57 166
View 374 437 Navin, Molly Philadelphia PA 38 F F35-39 1:39:29 395
View 375 438 Burd, Kimberly East Greenville PA 45 F F45-49 1:39:51 496
View 376 439 Hussey, Lisa Spring City PA 40 F F40-44 1:40:20 480
View 377 440 Donnelly, Theresa Pottstown PA 37 F F35-39 1:40:22 322
View 378 441 Kimmich, Rachel Philadelphia PA 54 F Relay 1:40:38 515
View 379 443 Samson, Lynne Wayne PA 48 F F45-49 1:40:43 548
View 380 444 Collester, Zach --- M M0-19 1:41:00 571
View 381 447 Lai, Nitsan Jeffersonville PA 35 F F35-39 1:41:50 363
View 382 449 Roselli, Christine Drexel Hill PA 29 F F25-29 1:42:12 453
View 383 450 Williams, John West Chester PA 68 M M65-69 1:42:28 287
View 384 451 Weiner, Jennifer Philadelphia PA 38 F Athena 1:42:33 411
View 385 453 Liu, A Q West Chester PA 39 F F35-39 1:42:55 331
View 386 454 Quinn, Rachel Lehighton PA 27 F F25-29 1:43:18 357
View 387 455 Gatano, Jeff Harrisburg PA 28 M M25-29 1:43:46 37
View 388 456 Cheyney, Erin Boothwyn PA 25 F F25-29 1:44:05 433
View 389 458 Wheeler, Wendi Orwigsburg PA 52 F F50-54 1:44:30 476
View 390 459 Santee, Cindy Abington PA 53 F F50-54 1:45:16 537
View 391 460 Andrews, Alicia Pittsburgh PA 29 F F25-29 1:45:21 326
View 392 461 Reinhart, Danielle Folsom PA 32 F F30-34 1:45:27 324
View 393 462 Streeper, Cheryl Schwenksville PA 41 F Athena 1:45:38 555
View 394 463 Mcgee, Jason Phoenixville PA 27 M M25-29 1:46:31 55
View 395 464 Steinberg, Lindsay --- F F0-19 1:47:07 377
View 396 465 Hogarth, Robert Downingtown PA 36 M M35-39 1:47:25 6
View 397 466 Hymowitz, Alexa Philadelphia PA 37 F F35-39 1:48:20 423
View 398 467 Mcelroy, Cristin Philadelphia PA 25 F F25-29 1:49:17 349
View 399 470 Starnes, Lynda Kennett Square PA 38 F F35-39 1:49:55 298
View 400 471 Falco, Adriana Glenmoore PA 44 F F40-44 1:50:06 516
View 401 474 Conlan, Chip Green Lane PA 59 M M55-59 1:50:57 177
View 402 475 Barber, Corey Kennett Square PA 35 F Athena 1:51:28 300
View 403 476 Walter, Karen Birdsboro PA 47 F F45-49 1:51:43 499
View 404 478 Harrison, Cheryl Upper Black Eddy PA 58 F F55-59 1:53:23 488
View 405 479 Nulman, Laura Bedford PA 23 F Athena 1:54:43 380
View 406 480 White, Laura Downingtown PA 25 F F25-29 1:55:16 414
View 407 481 Martini, Laura Rosemont PA 55 F F55-59 1:56:38 475
View 408 482 Killian, Joyce Philadelphia PA 33 F F30-34 1:58:06 422
View 409 483 Demarshall, Maureen Huntingdon Valley PA 38 F F35-39 2:00:48 430
View 410 484 Kealey, William Havertown PA 42 M Clydesdale Master 2:01:12 219
View 411 488 Friel, Mary Phoenixville PA 38 F F35-39 2:03:30 427
View 412 489 Pattinson, Sandra Ridley Park PA 55 F F55-59 2:06:08 486
View 413 492 Slevin, Jean Paoli PA 43 F F40-44 2:23:23 529
View 414 493 Stephens, Maryellen Downingtown PA 33 F F30-34 2:28:16 416
View 415 495 Guzzardo, Joseph Philadelphia PA 29 M M25-29 87
View 416 496 Veno, Nicholas Kennett Square PA 15 M M0-19 13
View 417 497 Romanini, Dominick Port Matilda PA 20 M M20-24 79